Golden Pond, Kentucky
Current Conditions -  °F | °C
As of 6:58 PM on Monday 26 Jan 2015 (Local Time) from KHOP Reporting Station
Overcast Overcast  
Wind Chill: 32°   Ceiling: 7000
Heat Index: 36°   Visibility: 10mi
Dew Point: 29°   Wind: 5mph
Humidity: 78%   Direction: 300°WNW
Pressure: 29.97"   Gusts: NA
Location:  36.8031°N, 87.8159°W
Report Text: KHOP 270058Z AUTO 30004KT 10SM OVC070 02/M01 A2997 RMK AO2 SLP155 T00201015
Loading
Personal Weather Stations






























Interactive Weather Map New forecast layout! Learn more

10-Day Weather Forecast

Advertisements
Track Severe Weather on mobile